Time,TemperatureF,DewpointF,PressureIn,WindDirection,WindDirectionDegrees,WindSpeedMPH,WindSpeedGustMPH,Humidity,HourlyPrecipIn,Conditions,Clouds,dailyrainin,SolarRadiationWatts/m^2,SoftwareType,DateUTC
2013-02-02 00:12:00,8.9,1.0,30.02,WSW,248,5.0,13.0,70,0.00,,,0.00,0,weatherlink.com 1.10,2013-02-02 05:12:00,
2013-02-02 00:27:00,8.6,1.0,30.03,SSE,163,0.0,21.0,70,0.00,,,0.00,0,weatherlink.com 1.10,2013-02-02 05:27:00,
2013-02-02 00:43:00,8.4,0.0,30.03,SW,224,2.0,19.0,69,0.00,,,0.00,0,weatherlink.com 1.10,2013-02-02 05:43:00,
2013-02-02 00:58:00,8.1,0.0,30.04,NNW,332,1.0,18.0,70,0.00,,,0.00,0,weatherlink.com 1.10,2013-02-02 05:58:00,
2013-02-02 01:13:00,7.8,0.0,30.06,NW,309,0.0,11.0,70,0.00,,,0.00,0,weatherlink.com 1.10,2013-02-02 06:13:00,
2013-02-02 01:27:00,7.7,0.0,30.07,WNW,292,0.0,11.0,70,0.00,,,0.00,0,weatherlink.com 1.10,2013-02-02 06:27:00,
2013-02-02 01:43:00,7.3,0.0,30.08,WNW,302,0.0,9.0,71,0.00,,,0.00,0,weatherlink.com 1.10,2013-02-02 06:43:00,
2013-02-02 01:58:00,7.1,-1.0,30.09,NW,304,1.0,9.0,71,0.00,,,0.00,0,weatherlink.com 1.10,2013-02-02 06:58:00,
2013-02-02 02:13:00,6.8,-1.0,30.09,WSW,258,0.0,8.0,71,0.00,,,0.00,0,weatherlink.com 1.10,2013-02-02 07:13:00,
2013-02-02 02:28:00,6.5,-1.0,30.09,West,259,0.0,7.0,71,0.00,,,0.00,0,weatherlink.com 1.10,2013-02-02 07:28:00,
2013-02-02 02:58:00,6.1,-1.0,30.10,South,183,4.0,7.0,71,0.00,,,0.00,0,weatherlink.com 1.10,2013-02-02 07:58:00,
2013-02-02 03:13:00,5.9,-1.0,30.10,West,259,1.0,10.0,72,0.00,,,0.00,0,weatherlink.com 1.10,2013-02-02 08:13:00,
2013-02-02 03:28:00,5.7,-2.0,30.10,WSW,243,0.0,11.0,72,0.00,,,0.00,0,weatherlink.com 1.10,2013-02-02 08:28:00,
2013-02-02 03:43:00,5.5,-2.0,30.10,WNW,297,2.0,11.0,72,0.00,,,0.00,0,weatherlink.com 1.10,2013-02-02 08:43:00,
2013-02-02 03:58:00,5.2,-2.0,30.11,WNW,289,0.0,8.0,73,0.00,,,0.00,0,weatherlink.com 1.10,2013-02-02 08:58:00,
2013-02-02 04:13:00,5.1,-2.0,30.12,NW,310,0.0,10.0,73,0.00,,,0.00,0,weatherlink.com 1.10,2013-02-02 09:13:00,
2013-02-02 04:29:00,4.9,-2.0,30.12,NW,307,1.0,6.0,74,0.00,,,0.00,0,weatherlink.com 1.10,2013-02-02 09:29:00,
2013-02-02 04:44:00,4.9,-2.0,30.13,West,275,2.0,9.0,74,0.00,,,0.00,0,weatherlink.com 1.10,2013-02-02 09:44:00,
2013-02-02 04:58:00,5.0,-2.0,30.12,WNW,299,0.0,13.0,73,0.00,,,0.00,0,weatherlink.com 1.10,2013-02-02 09:58:00,
2013-02-02 05:14:00,5.4,-2.0,30.12,NW,304,9.0,9.0,71,0.00,,,0.00,0,weatherlink.com 1.10,2013-02-02 10:14:00,
2013-02-02 05:29:00,5.6,-3.0,30.13,WNW,296,1.0,9.0,69,0.00,,,0.00,0,weatherlink.com 1.10,2013-02-02 10:29:00,
2013-02-02 05:44:00,5.6,-3.0,30.12,NW,312,7.0,11.0,69,0.00,,,0.00,0,weatherlink.com 1.10,2013-02-02 10:44:00,
2013-02-02 05:59:00,6.1,-2.0,30.13,NW,310,0.0,12.0,68,0.00,,,0.00,0,weatherlink.com 1.10,2013-02-02 10:59:00,
2013-02-02 06:14:00,6.5,-2.0,30.14,WNW,300,0.0,10.0,68,0.00,,,0.00,0,weatherlink.com 1.10,2013-02-02 11:14:00,
2013-02-02 06:28:00,6.1,-2.0,30.14,West,274,0.0,2.0,68,0.00,,,0.00,0,weatherlink.com 1.10,2013-02-02 11:28:00,
2013-02-02 06:45:00,5.5,-2.0,30.14,NW,325,3.0,10.0,72,0.00,,,0.00,0,weatherlink.com 1.10,2013-02-02 11:45:00,
2013-02-02 06:59:00,6.6,-1.0,30.14,NW,324,5.0,10.0,70,0.00,,,0.00,0,weatherlink.com 1.10,2013-02-02 11:59:00,
2013-02-02 07:14:00,6.8,-1.0,30.15,WSW,243,0.0,7.0,69,0.00,,,0.00,9,weatherlink.com 1.10,2013-02-02 12:14:00,
2013-02-02 07:29:00,7.5,-1.0,30.16,SW,220,0.0,4.0,68,0.00,,,0.00,19,weatherlink.com 1.10,2013-02-02 12:29:00,
2013-02-02 07:45:00,8.3,0.0,30.17,South,184,0.0,5.0,69,0.00,,,0.00,35,weatherlink.com 1.10,2013-02-02 12:45:00,
2013-02-02 08:02:00,8.0,0.0,30.17,WNW,284,1.0,6.0,70,0.00,,,0.00,70,weatherlink.com 1.10,2013-02-02 13:02:00,
2013-02-02 08:16:00,7.4,0.0,30.17,NW,320,0.0,11.0,71,0.00,,,0.00,46,weatherlink.com 1.10,2013-02-02 13:16:00,
2013-02-02 08:32:00,6.9,0.0,30.17,SW,214,0.0,4.0,72,0.00,,,0.00,40,weatherlink.com 1.10,2013-02-02 13:32:00,
2013-02-02 08:46:00,7.7,0.0,30.18,NW,309,0.0,6.0,72,0.00,,,0.00,76,weatherlink.com 1.10,2013-02-02 13:46:00,
2013-02-02 09:01:00,11.2,3.0,30.18,South,180,3.0,5.0,68,0.00,,,0.00,320,weatherlink.com 1.10,2013-02-02 14:01:00,
2013-02-02 09:16:00,11.4,3.0,30.17,NW,325,1.0,11.0,69,0.00,,,0.00,343,weatherlink.com 1.10,2013-02-02 14:16:00,
2013-02-02 09:32:00,11.3,3.0,30.17,West,259,2.0,11.0,70,0.00,,,0.00,216,weatherlink.com 1.10,2013-02-02 14:32:00,
2013-02-02 09:46:00,11.8,3.0,30.17,WSW,243,0.0,5.0,69,0.00,,,0.00,139,weatherlink.com 1.10,2013-02-02 14:46:00,
2013-02-02 10:02:00,10.5,3.0,30.17,SSW,210,3.0,13.0,72,0.00,,,0.00,139,weatherlink.com 1.10,2013-02-02 15:02:00,
2013-02-02 10:17:00,10.5,4.0,30.16,SSW,203,2.0,11.0,74,0.00,,,0.00,114,weatherlink.com 1.10,2013-02-02 15:17:00,
2013-02-02 10:32:00,10.7,4.0,30.16,South,180,3.0,10.0,74,0.00,,,0.00,130,weatherlink.com 1.10,2013-02-02 15:32:00,
2013-02-02 10:47:00,11.6,5.0,30.15,South,169,2.0,5.0,74,0.00,,,0.00,176,weatherlink.com 1.10,2013-02-02 15:47:00,
2013-02-02 11:02:00,12.1,5.0,30.15,South,190,1.0,12.0,73,0.00,,,0.00,171,weatherlink.com 1.10,2013-02-02 16:02:00,
2013-02-02 11:17:00,12.4,5.0,30.14,SSE,149,6.0,14.0,73,0.00,,,0.00,265,weatherlink.com 1.10,2013-02-02 16:17:00,
2013-02-02 11:33:00,12.7,5.0,30.13,SW,218,2.0,18.0,71,0.00,,,0.00,320,weatherlink.com 1.10,2013-02-02 16:33:00,
2013-02-02 11:48:00,14.5,6.0,30.12,South,175,0.0,12.0,69,0.00,,,0.00,424,weatherlink.com 1.10,2013-02-02 16:48:00,
2013-02-02 12:02:00,14.9,6.0,30.11,SSE,160,9.0,19.0,67,0.00,,,0.00,446,weatherlink.com 1.10,2013-02-02 17:02:00,
2013-02-02 12:18:00,16.1,6.0,30.09,South,178,6.0,15.0,64,0.00,,,0.00,619,weatherlink.com 1.10,2013-02-02 17:18:00,
2013-02-02 12:34:00,15.3,5.0,30.09,SSW,198,7.0,21.0,64,0.00,,,0.00,329,weatherlink.com 1.10,2013-02-02 17:34:00,
2013-02-02 12:48:00,15.3,5.0,30.08,SSW,205,10.0,21.0,64,0.00,,,0.00,195,weatherlink.com 1.10,2013-02-02 17:48:00,
2013-02-02 13:04:00,15.9,5.0,30.07,South,181,4.0,12.0,63,0.00,,,0.00,269,weatherlink.com 1.10,2013-02-02 18:04:00,
2013-02-02 13:19:00,16.5,6.0,30.06,SSE,151,5.0,16.0,63,0.00,,,0.00,207,weatherlink.com 1.10,2013-02-02 18:19:00,
2013-02-02 13:35:00,16.2,6.0,30.06,SSW,205,6.0,15.0,63,0.00,,,0.00,227,weatherlink.com 1.10,2013-02-02 18:35:00,
2013-02-02 13:49:00,16.7,5.0,30.05,SSW,199,2.0,18.0,61,0.00,,,0.00,232,weatherlink.com 1.10,2013-02-02 18:49:00,
2013-02-02 14:04:00,17.1,6.0,30.05,South,182,5.0,18.0,61,0.00,,,0.00,188,weatherlink.com 1.10,2013-02-02 19:04:00,
2013-02-02 14:21:00,17.0,5.0,30.04,SSE,166,6.0,23.0,60,0.00,,,0.00,149,weatherlink.com 1.10,2013-02-02 19:21:00,
2013-02-02 14:35:00,17.0,6.0,30.04,South,173,6.0,18.0,62,0.00,,,0.00,142,weatherlink.com 1.10,2013-02-02 19:35:00,
2013-02-02 14:52:00,17.2,5.0,30.03,South,186,4.0,25.0,60,0.00,,,0.00,156,weatherlink.com 1.10,2013-02-02 19:52:00,
2013-02-02 15:05:00,17.4,5.0,30.03,SSW,207,8.0,22.0,59,0.00,,,0.00,125,weatherlink.com 1.10,2013-02-02 20:05:00,
2013-02-02 15:22:00,17.9,5.0,30.02,SSE,152,1.0,19.0,58,0.00,,,0.00,149,weatherlink.com 1.10,2013-02-02 20:22:00,
2013-02-02 15:35:00,17.8,4.0,30.03,SSW,194,7.0,20.0,56,0.00,,,0.00,132,weatherlink.com 1.10,2013-02-02 20:35:00,
2013-02-02 15:51:00,17.9,4.0,30.02,SSE,161,4.0,19.0,55,0.00,,,0.00,76,weatherlink.com 1.10,2013-02-02 20:51:00,
2013-02-02 16:07:00,17.5,4.0,30.02,SSW,201,2.0,11.0,55,0.00,,,0.00,54,weatherlink.com 1.10,2013-02-02 21:07:00,
2013-02-02 16:21:00,17.0,4.0,30.02,South,187,0.0,11.0,56,0.00,,,0.00,32,weatherlink.com 1.10,2013-02-02 21:21:00,
2013-02-02 16:36:00,16.5,4.0,30.02,SSE,154,4.0,16.0,57,0.00,,,0.00,19,weatherlink.com 1.10,2013-02-02 21:36:00,
2013-02-02 16:52:00,16.2,4.0,30.02,SSW,202,0.0,11.0,59,0.00,,,0.00,9,weatherlink.com 1.10,2013-02-02 21:52:00,
2013-02-02 17:07:00,15.8,4.0,30.02,South,180,1.0,10.0,61,0.00,,,0.00,0,weatherlink.com 1.10,2013-02-02 22:07:00,
2013-02-02 17:22:00,15.5,5.0,30.02,West,275,1.0,10.0,62,0.00,,,0.00,0,weatherlink.com 1.10,2013-02-02 22:22:00,
2013-02-02 17:37:00,15.4,5.0,30.02,SSW,195,0.0,7.0,64,0.00,,,0.00,0,weatherlink.com 1.10,2013-02-02 22:37:00,
2013-02-02 17:52:00,15.3,5.0,30.02,WSW,237,0.0,5.0,64,0.00,,,0.00,0,weatherlink.com 1.10,2013-02-02 22:52:00,
2013-02-02 18:23:00,15.5,6.0,30.02,South,179,0.0,10.0,65,0.00,,,0.00,0,weatherlink.com 1.10,2013-02-02 23:23:00,
2013-02-02 18:38:00,15.7,6.0,30.01,SSW,192,0.0,8.0,65,0.00,,,0.00,0,weatherlink.com 1.10,2013-02-02 23:38:00,
2013-02-02 18:53:00,15.7,6.0,30.01,South,175,4.0,9.0,65,0.00,,,0.00,0,weatherlink.com 1.10,2013-02-02 23:53:00,
2013-02-02 19:09:00,15.7,6.0,30.02,SSW,204,0.0,8.0,65,0.00,,,0.00,0,weatherlink.com 1.10,2013-02-03 00:09:00,
2013-02-02 19:23:00,15.7,6.0,30.02,SSW,192,0.0,6.0,65,0.00,,,0.00,0,weatherlink.com 1.10,2013-02-03 00:23:00,
2013-02-02 19:38:00,15.8,6.0,30.02,SW,219,0.0,7.0,66,0.00,,,0.00,0,weatherlink.com 1.10,2013-02-03 00:38:00,
2013-02-02 19:54:00,15.8,6.0,30.02,SSW,196,5.0,11.0,64,0.00,,,0.00,0,weatherlink.com 1.10,2013-02-03 00:54:00,
2013-02-02 20:09:00,15.7,6.0,30.02,WNW,290,0.0,8.0,66,0.00,,,0.00,0,weatherlink.com 1.10,2013-02-03 01:09:00,
2013-02-02 20:25:00,15.3,6.0,30.01,SSW,202,0.0,7.0,68,0.00,,,0.00,0,weatherlink.com 1.10,2013-02-03 01:25:00,
2013-02-02 20:40:00,15.0,8.0,30.02,NNW,333,2.0,9.0,72,0.00,,,0.00,0,weatherlink.com 1.10,2013-02-03 01:40:00,
2013-02-02 20:55:00,14.5,8.0,30.02,WSW,240,0.0,7.0,76,0.00,,,0.00,0,weatherlink.com 1.10,2013-02-03 01:55:00,
2013-02-02 21:10:00,14.3,9.0,30.02,SSW,201,0.0,8.0,78,0.00,,,0.00,0,weatherlink.com 1.10,2013-02-03 02:10:00,
2013-02-02 21:25:00,14.3,9.0,30.03,SSW,196,0.0,2.0,80,0.00,,,0.00,0,weatherlink.com 1.10,2013-02-03 02:25:00,
2013-02-02 21:40:00,14.2,9.0,30.02,WSW,252,0.0,11.0,79,0.00,,,0.00,0,weatherlink.com 1.10,2013-02-03 02:40:00,
2013-02-02 21:55:00,14.1,9.0,30.02,WNW,302,0.0,5.0,79,0.00,,,0.00,0,weatherlink.com 1.10,2013-02-03 02:55:00,
2013-02-02 22:10:00,13.7,9.0,30.02,WNW,303,0.0,7.0,80,0.00,,,0.00,0,weatherlink.com 1.10,2013-02-03 03:10:00,
2013-02-02 22:25:00,13.5,9.0,30.02,WNW,303,0.0,4.0,81,0.00,,,0.00,0,weatherlink.com 1.10,2013-02-03 03:25:00,
2013-02-02 22:40:00,13.4,9.0,30.02,SSW,205,0.0,2.0,82,0.00,,,0.00,0,weatherlink.com 1.10,2013-02-03 03:40:00,
2013-02-02 22:55:00,13.1,9.0,30.02,SSW,204,0.0,2.0,82,0.00,,,0.00,0,weatherlink.com 1.10,2013-02-03 03:55:00,
2013-02-02 23:11:00,13.0,9.0,30.02,SSW,204,0.0,4.0,82,0.00,,,0.00,0,weatherlink.com 1.10,2013-02-03 04:11:00,
2013-02-02 23:25:00,12.9,9.0,30.02,SSW,203,0.0,1.0,83,0.00,,,0.00,0,weatherlink.com 1.10,2013-02-03 04:25:00,
2013-02-02 23:41:00,12.8,8.0,30.02,WSW,241,2.0,2.0,82,0.00,,,0.00,0,weatherlink.com 1.10,2013-02-03 04:41:00,
2013-02-02 23:56:00,12.5,9.0,30.02,ESE,121,0.0,4.0,85,0.00,,,0.00,0,weatherlink.com 1.10,2013-02-03 04:56:00,